createdAt,value
2022-12-22T00:01:54.364Z,97661.19
2022-12-22T00:04:39.580Z,97652.94
2022-12-22T00:07:24.762Z,97662.44
2022-12-22T00:10:10.337Z,97652.44
2022-12-22T00:12:55.866Z,97652.94
2022-12-22T00:15:41.306Z,97637.44
2022-12-22T00:18:36.004Z,97632.38
2022-12-22T00:21:21.123Z,97637.06
2022-12-22T00:24:06.317Z,97640.06
2022-12-22T00:26:53.201Z,97621.59
2022-12-22T00:29:39.156Z,97627.03
2022-12-22T00:32:25.028Z,97623.44
2022-12-22T00:35:10.553Z,97614.34
2022-12-22T00:37:56.432Z,97611.00
2022-12-22T00:40:45.772Z,97608.31
2022-12-22T00:43:31.644Z,97595.22
2022-12-22T00:46:18.520Z,97589.19
2022-12-22T00:49:04.484Z,97595.22
2022-12-22T00:51:51.093Z,97590.63
2022-12-22T00:54:38.398Z,97588.81
2022-12-22T00:57:23.513Z,97580.78
2022-12-22T01:00:09.705Z,97589.56
2022-12-22T01:02:54.873Z,97567.97
2022-12-22T01:05:40.279Z,97575.84
2022-12-22T01:08:29.385Z,97567.06
2022-12-22T01:11:14.344Z,97567.06
2022-12-22T01:13:59.572Z,97563.69
2022-12-22T01:16:44.674Z,97560.94
2022-12-22T01:19:30.084Z,97561.94
2022-12-22T01:22:15.986Z,97577.66
2022-12-22T01:25:00.990Z,97566.97
2022-12-22T01:27:46.350Z,97572.41
2022-12-22T01:30:31.859Z,97566.78
2022-12-22T01:33:16.976Z,97567.72
2022-12-22T01:36:02.476Z,97567.59
2022-12-22T01:38:47.446Z,97558.19
2022-12-22T01:41:37.170Z,97556.38
2022-12-22T01:44:32.856Z,97540.56
2022-12-22T01:47:47.065Z,97541.44
2022-12-22T01:50:40.680Z,97531.97
2022-12-22T01:53:28.783Z,97525.03
2022-12-22T01:56:15.075Z,97521.44
2022-12-22T01:59:08.571Z,97520.72
2022-12-22T02:01:54.677Z,97509.19
2022-12-22T02:04:44.751Z,97503.09
2022-12-22T02:07:46.552Z,97508.19
2022-12-22T02:10:55.030Z,97509.97
2022-12-22T02:13:43.314Z,97491.00
2022-12-22T02:17:08.758Z,97482.63
2022-12-22T02:20:27.401Z,97488.72
2022-12-22T02:23:43.826Z,97485.31
2022-12-22T02:26:51.413Z,97480.06
2022-12-22T02:29:43.863Z,97481.97
2022-12-22T02:32:29.633Z,97473.78
2022-12-22T02:35:14.944Z,97474.63
2022-12-22T02:38:16.014Z,97480.19
2022-12-22T02:41:07.179Z,97467.88
2022-12-22T02:44:12.205Z,97481.13
2022-12-22T02:47:07.122Z,97468.84
2022-12-22T02:50:05.581Z,97463.53
2022-12-22T02:52:54.647Z,97467.88
2022-12-22T02:55:40.564Z,97468.78
2022-12-22T02:58:26.195Z,97462.91
2022-12-22T03:01:11.667Z,97447.09
2022-12-22T03:03:57.078Z,97446.19
2022-12-22T03:06:42.738Z,97450.66
2022-12-22T03:09:27.806Z,97451.75
2022-12-22T03:12:12.845Z,97432.41
2022-12-22T03:14:58.214Z,97437.00
2022-12-22T03:17:43.264Z,97434.13
2022-12-22T03:20:28.446Z,97417.91
2022-12-22T03:23:13.626Z,97416.69
2022-12-22T03:25:53.216Z,97417.53
2022-12-22T03:28:22.670Z,97403.59
2022-12-22T03:31:04.637Z,97396.72
2022-12-22T03:33:31.692Z,97395.13
2022-12-22T03:35:59.481Z,97398.75
2022-12-22T03:38:26.526Z,97384.75
2022-12-22T03:40:53.378Z,97384.53
2022-12-22T03:43:38.426Z,97377.97
2022-12-22T03:46:23.465Z,97375.19
2022-12-22T03:49:10.152Z,97374.06
2022-12-22T03:51:45.481Z,97384.44
2022-12-22T03:54:14.490Z,97372.34
2022-12-22T03:56:41.832Z,97386.38
2022-12-22T03:59:08.653Z,97373.16
2022-12-22T04:01:45.282Z,97379.31
2022-12-22T04:04:13.685Z,97366.00
2022-12-22T04:06:40.636Z,97365.28
2022-12-22T04:09:07.339Z,97361.66
2022-12-22T04:11:52.594Z,97366.19
2022-12-22T04:14:19.577Z,97359.97
2022-12-22T04:16:46.413Z,97365.28
2022-12-22T04:19:13.086Z,97350.94
2022-12-22T04:21:39.760Z,97353.56
2022-12-22T04:24:06.783Z,97350.22
2022-12-22T04:26:33.495Z,97339.72
2022-12-22T04:29:00.247Z,97339.00
2022-12-22T04:31:28.105Z,97344.25
2022-12-22T04:33:54.733Z,97339.84
2022-12-22T04:36:21.396Z,97337.16
2022-12-22T04:38:48.059Z,97336.25
2022-12-22T04:41:14.985Z,97332.44
2022-12-22T04:43:41.548Z,97330.88
2022-12-22T04:46:08.382Z,97337.03
2022-12-22T04:48:35.534Z,97327.34
2022-12-22T04:51:03.016Z,97327.59
2022-12-22T04:53:30.435Z,97320.88
2022-12-22T04:56:00.312Z,97318.28
2022-12-22T04:58:27.433Z,97311.31
2022-12-22T05:00:54.331Z,97312.13
2022-12-22T05:03:21.432Z,97295.53
2022-12-22T05:05:48.162Z,97295.41
2022-12-22T05:08:14.951Z,97297.97
2022-12-22T05:10:41.599Z,97289.47
2022-12-22T05:13:08.117Z,97285.97
2022-12-22T05:15:36.481Z,97281.00
2022-12-22T05:18:03.454Z,97279.97
2022-12-22T05:20:30.188Z,97275.50
2022-12-22T05:22:57.360Z,97274.91
2022-12-22T05:25:24.183Z,97273.09
2022-12-22T05:27:51.139Z,97270.41
2022-12-22T05:30:19.722Z,97265.03
2022-12-22T05:32:46.658Z,97261.75
2022-12-22T05:35:14.018Z,97269.47
2022-12-22T05:37:40.969Z,97269.19
2022-12-22T05:40:08.554Z,97272.03
2022-12-22T05:42:38.021Z,97270.41
2022-12-22T05:45:07.434Z,97260.69
2022-12-22T05:47:34.554Z,97252.00
2022-12-22T05:50:01.307Z,97252.63
2022-12-22T05:52:28.108Z,97261.91
2022-12-22T05:54:54.763Z,97247.25
2022-12-22T05:57:21.672Z,97248.97
2022-12-22T05:59:48.268Z,97252.75
2022-12-22T06:02:15.163Z,97243.06
2022-12-22T06:04:41.868Z,97244.63
2022-12-22T06:07:08.579Z,97244.91
2022-12-22T06:09:35.213Z,97239.72
2022-12-22T06:12:02.776Z,97232.97
2022-12-22T06:14:29.397Z,97227.75
2022-12-22T06:16:56.097Z,97231.44
2022-12-22T06:19:22.632Z,97220.19
2022-12-22T06:21:49.252Z,97218.69
2022-12-22T06:24:15.792Z,97221.53
2022-12-22T06:26:42.386Z,97215.59
2022-12-22T06:29:08.932Z,97205.34
2022-12-22T06:31:35.578Z,97200.13
2022-12-22T06:34:02.327Z,97202.03
2022-12-22T06:36:28.879Z,97207.91
2022-12-22T06:38:55.332Z,97191.34
2022-12-22T06:41:40.650Z,97195.59
2022-12-22T06:44:07.674Z,97195.03
2022-12-22T06:46:34.401Z,97183.66
2022-12-22T06:49:01.136Z,97191.69
2022-12-22T06:51:27.656Z,97197.84
2022-12-22T06:53:54.237Z,97193.41
2022-12-22T06:56:20.874Z,97183.19
2022-12-22T06:58:47.353Z,97177.69
2022-12-22T07:01:13.928Z,97191.69
2022-12-22T07:03:40.781Z,97179.25
2022-12-22T07:06:07.701Z,97175.84
2022-12-22T07:08:34.338Z,97168.16
2022-12-22T07:11:01.154Z,97166.72
2022-12-22T07:13:32.899Z,97167.59
2022-12-22T07:16:02.024Z,97174.53
2022-12-22T07:18:32.583Z,97173.44
2022-12-22T07:21:01.187Z,97166.50
2022-12-22T07:23:27.870Z,97170.25
2022-12-22T07:25:54.606Z,97167.56
2022-12-22T07:28:21.556Z,97172.44
2022-12-22T07:30:49.975Z,97170.72
2022-12-22T07:33:17.347Z,97165.44
2022-12-22T07:35:44.158Z,97178.06
2022-12-22T07:38:10.920Z,97162.25
2022-12-22T07:40:41.763Z,97163.75
2022-12-22T07:43:12.036Z,97162.75
2022-12-22T07:45:38.665Z,97165.78
2022-12-22T07:48:28.373Z,97156.28
2022-12-22T07:51:02.420Z,97165.69
2022-12-22T07:53:28.997Z,97163.72
2022-12-22T07:55:55.837Z,97156.56
2022-12-22T07:58:22.376Z,97162.50
2022-12-22T08:00:48.844Z,97162.78
2022-12-22T08:03:15.424Z,97159.84
2022-12-22T08:05:42.041Z,97157.41
2022-12-22T08:08:08.535Z,97155.63
2022-12-22T08:10:34.985Z,97148.19
2022-12-22T08:13:01.645Z,97139.47
2022-12-22T08:15:28.611Z,97130.59
2022-12-22T08:17:56.752Z,97131.97
2022-12-22T08:20:23.532Z,97143.19
2022-12-22T08:22:50.034Z,97147.03
2022-12-22T08:25:16.719Z,97135.63
2022-12-22T08:27:52.198Z,97136.84
2022-12-22T08:30:18.774Z,97136.22
2022-12-22T08:32:48.516Z,97135.06
2022-12-22T08:35:15.715Z,97119.53
2022-12-22T08:37:45.258Z,97129.91
2022-12-22T08:40:18.180Z,97126.75
2022-12-22T08:42:46.033Z,97126.50
2022-12-22T08:45:13.059Z,97128.47
2022-12-22T08:47:39.988Z,97132.66
2022-12-22T08:50:07.536Z,97137.25
2022-12-22T08:52:34.317Z,97127.28
2022-12-22T08:55:00.976Z,97131.16
2022-12-22T08:57:27.727Z,97130.28
2022-12-22T08:59:54.641Z,97130.44
2022-12-22T09:02:21.426Z,97133.00
2022-12-22T09:04:48.001Z,97134.91
2022-12-22T09:07:15.117Z,97125.31
2022-12-22T09:09:41.859Z,97123.34
2022-12-22T09:12:08.683Z,97116.25
2022-12-22T09:14:35.289Z,97123.03
2022-12-22T09:17:02.024Z,97120.47
2022-12-22T09:19:28.897Z,97114.91
2022-12-22T09:21:55.897Z,97113.72
2022-12-22T09:24:22.827Z,97121.31
2022-12-22T09:26:49.763Z,97113.53
2022-12-22T09:29:17.093Z,97116.66
2022-12-22T09:31:44.688Z,97114.84
2022-12-22T09:34:17.085Z,97112.00
2022-12-22T09:36:45.166Z,97113.94
2022-12-22T09:39:11.856Z,97115.56
2022-12-22T09:41:51.705Z,97106.50
2022-12-22T09:44:38.496Z,97112.47
2022-12-22T09:47:18.655Z,97108.72
2022-12-22T09:49:45.949Z,97115.75
2022-12-22T09:52:40.924Z,97112.75
2022-12-22T09:55:26.975Z,97103.41
2022-12-22T09:57:54.530Z,97108.28
2022-12-22T10:00:25.333Z,97109.25
2022-12-22T10:03:14.273Z,97114.97
2022-12-22T10:06:22.892Z,97102.59
2022-12-22T10:08:49.375Z,97096.72
2022-12-22T10:11:19.046Z,97096.50
2022-12-22T10:13:46.062Z,97096.66
2022-12-22T10:16:28.458Z,97101.72
2022-12-22T10:18:56.592Z,97090.97
2022-12-22T10:21:24.121Z,97091.97
2022-12-22T10:23:51.763Z,97094.53
2022-12-22T10:26:28.731Z,97089.72
2022-12-22T10:29:18.576Z,97088.50
2022-12-22T10:32:05.175Z,97090.97
2022-12-22T10:34:32.037Z,97099.78
2022-12-22T10:37:04.091Z,97092.72
2022-12-22T10:39:33.629Z,97091.91
2022-12-22T10:42:10.005Z,97090.38
2022-12-22T10:44:38.451Z,97093.00
2022-12-22T10:47:19.500Z,97086.16
2022-12-22T10:52:30.961Z,97097.16
2022-12-22T10:55:22.895Z,97096.91
2022-12-22T10:57:50.269Z,97098.59
2022-12-22T11:00:29.113Z,97102.41
2022-12-22T11:03:01.376Z,97098.88
2022-12-22T11:05:28.803Z,97106.63
2022-12-22T11:07:56.485Z,97095.38
2022-12-22T11:10:28.797Z,97096.53
2022-12-22T11:13:13.927Z,97098.25
2022-12-22T11:15:49.869Z,97092.13
2022-12-22T11:18:47.567Z,97086.97
2022-12-22T11:21:26.211Z,97085.53
2022-12-22T11:24:21.876Z,97082.75
2022-12-22T11:27:06.980Z,97084.47
2022-12-22T11:29:45.769Z,97086.50
2022-12-22T11:32:56.431Z,97088.16
2022-12-22T11:35:38.506Z,97081.22
2022-12-22T11:38:20.237Z,97082.34
2022-12-22T11:40:50.257Z,97092.59
2022-12-22T11:43:31.965Z,97095.81
2022-12-22T11:46:18.659Z,97116.41
2022-12-22T11:49:04.254Z,97119.63
2022-12-22T11:52:05.425Z,97111.09
2022-12-22T11:54:31.908Z,97114.03
2022-12-22T11:57:27.081Z,97106.81
2022-12-22T11:59:59.806Z,97111.34
2022-12-22T12:02:39.012Z,97120.84
2022-12-22T12:05:51.823Z,97124.56
2022-12-22T12:08:24.555Z,97132.94
2022-12-22T12:11:07.808Z,97135.44
2022-12-22T12:13:50.331Z,97147.25
2022-12-22T12:16:30.580Z,97139.78
2022-12-22T12:19:02.923Z,97144.78
2022-12-22T12:21:42.340Z,97149.50
2022-12-22T12:24:27.637Z,97152.44
2022-12-22T12:27:18.051Z,97158.25
2022-12-22T12:30:36.256Z,97153.16
2022-12-22T12:32:59.297Z,97164.81
2022-12-22T12:35:39.110Z,97176.25
2022-12-22T12:41:51.643Z,97195.16
2022-12-22T12:44:21.146Z,97204.94
2022-12-22T12:46:50.562Z,97212.53
2022-12-22T12:49:35.337Z,97211.44
2022-12-22T12:52:04.142Z,97219.56
2022-12-22T12:54:30.605Z,97226.41
2022-12-22T12:57:10.286Z,97226.41
2022-12-22T12:59:39.854Z,97222.72
2022-12-22T13:02:37.364Z,97245.88
2022-12-22T13:05:23.910Z,97243.09
2022-12-22T13:08:12.691Z,97251.88
2022-12-22T13:10:49.347Z,97260.75
2022-12-22T13:13:21.858Z,97264.63
2022-12-22T13:16:00.858Z,97274.25
2022-12-22T13:18:30.453Z,97285.97
2022-12-22T13:21:50.964Z,97287.44
2022-12-22T13:24:22.761Z,97287.81
2022-12-22T13:26:44.555Z,97299.16
2022-12-22T13:29:17.228Z,97295.50
2022-12-22T13:31:47.862Z,97303.88
2022-12-22T13:35:20.105Z,97306.50
2022-12-22T13:37:29.278Z,97315.28
2022-12-22T13:40:18.357Z,97308.50
2022-12-22T13:42:55.235Z,97323.25
2022-12-22T13:45:44.908Z,97330.25
2022-12-22T13:48:20.920Z,97341.84
2022-12-22T13:50:51.848Z,97342.69
2022-12-22T13:56:21.946Z,97353.44
2022-12-22T13:58:55.490Z,97364.06
2022-12-22T14:01:22.074Z,97365.13
2022-12-22T14:04:00.642Z,97381.16
2022-12-22T14:06:39.197Z,97383.66
2022-12-22T14:09:13.186Z,97390.31
2022-12-22T14:11:44.085Z,97400.47
2022-12-22T14:14:18.875Z,97397.84
2022-12-22T14:16:48.277Z,97403.00
2022-12-22T14:19:16.970Z,97404.69
2022-12-22T14:21:47.306Z,97401.50
2022-12-22T14:24:24.600Z,97416.31
2022-12-22T14:26:53.394Z,97406.75
2022-12-22T14:29:25.034Z,97415.28
2022-12-22T14:31:58.248Z,97415.53
2022-12-22T14:34:35.216Z,97417.13
2022-12-22T14:37:02.519Z,97422.34
2022-12-22T14:39:32.000Z,97426.13
2022-12-22T14:42:01.609Z,97434.91
2022-12-22T14:44:45.962Z,97447.00
2022-12-22T14:47:12.675Z,97445.31
2022-12-22T14:49:53.036Z,97447.00
2022-12-22T14:52:37.875Z,97450.63
2022-12-22T14:55:06.796Z,97445.72
2022-12-22T14:57:40.489Z,97461.25
2022-12-22T15:00:28.379Z,97464.16
2022-12-22T15:02:58.582Z,97472.06
2022-12-22T15:05:35.715Z,97473.88
2022-12-22T15:08:06.592Z,97472.34
2022-12-22T15:10:44.682Z,97465.53
2022-12-22T15:13:19.378Z,97478.91
2022-12-22T15:15:46.017Z,97480.72
2022-12-22T15:18:15.495Z,97483.28
2022-12-22T15:20:42.363Z,97484.84
2022-12-22T15:23:17.226Z,97490.28
2022-12-22T15:25:44.581Z,97494.09
2022-12-22T15:28:11.259Z,97497.50
2022-12-22T15:30:38.588Z,97507.69
2022-12-22T15:33:12.166Z,97519.38
2022-12-22T15:35:38.786Z,97528.72
2022-12-22T15:38:12.789Z,97532.19
2022-12-22T15:40:39.411Z,97524.16
2022-12-22T15:43:12.917Z,97531.16
2022-12-22T15:45:46.428Z,97538.22
2022-12-22T15:48:22.255Z,97543.53
2022-12-22T15:50:49.113Z,97550.41
2022-12-22T15:53:19.080Z,97544.44
2022-12-22T15:55:48.902Z,97546.25
2022-12-22T15:58:19.290Z,97543.66
2022-12-22T16:00:46.085Z,97547.34
2022-12-22T16:03:14.468Z,97547.41
2022-12-22T16:05:41.941Z,97552.44
2022-12-22T16:08:18.278Z,97553.25
2022-12-22T16:10:46.907Z,97551.50
2022-12-22T16:13:15.621Z,97551.50
2022-12-22T16:15:42.468Z,97548.91
2022-12-22T16:18:11.990Z,97538.41
2022-12-22T16:20:41.534Z,97546.53
2022-12-22T16:23:16.214Z,97546.63
2022-12-22T16:25:44.979Z,97544.72
2022-12-22T16:28:21.564Z,97544.78
2022-12-22T16:30:48.873Z,97538.63
2022-12-22T16:33:16.341Z,97540.97
2022-12-22T16:35:43.601Z,97554.34
2022-12-22T16:38:14.737Z,97554.13
2022-12-22T16:40:48.047Z,97558.34
2022-12-22T16:46:17.308Z,97564.63
2022-12-22T16:48:50.732Z,97565.81
2022-12-22T16:51:24.009Z,97568.72
2022-12-22T16:53:51.071Z,97571.22
2022-12-22T16:56:23.479Z,97572.44
2022-12-22T16:58:50.476Z,97583.03
2022-12-22T17:01:25.051Z,97581.19
2022-12-22T17:03:52.050Z,97578.25
2022-12-22T17:06:18.840Z,97580.44
2022-12-22T17:08:46.812Z,97584.63
2022-12-22T17:11:23.181Z,97578.53
2022-12-22T17:13:53.736Z,97575.28
2022-12-22T17:16:21.963Z,97585.69
2022-12-22T17:18:49.034Z,97584.16
2022-12-22T17:21:18.775Z,97575.41
2022-12-22T17:23:54.887Z,97582.50
2022-12-22T17:26:25.599Z,97579.03
2022-12-22T17:28:53.056Z,97581.66
2022-12-22T17:31:22.029Z,97578.13
2022-12-22T17:33:49.284Z,97571.16
2022-12-22T17:36:46.926Z,97576.25
2022-12-22T17:39:17.118Z,97579.09
2022-12-22T17:41:44.096Z,97577.63
2022-12-22T17:44:19.587Z,97578.41
2022-12-22T17:46:46.815Z,97578.44
2022-12-22T17:49:13.664Z,97578.59
2022-12-22T17:51:41.863Z,97576.81
2022-12-22T17:54:22.286Z,97576.03
2022-12-22T17:56:49.398Z,97564.88
2022-12-22T17:59:16.352Z,97574.00
2022-12-22T18:01:43.160Z,97566.38
2022-12-22T18:04:10.167Z,97564.66
2022-12-22T18:06:39.363Z,97563.75
2022-12-22T18:09:07.563Z,97567.28
2022-12-22T18:11:37.088Z,97566.44
2022-12-22T18:14:05.782Z,97568.34
2022-12-22T18:16:32.455Z,97561.50
2022-12-22T18:18:59.070Z,97565.78
2022-12-22T18:21:25.633Z,97561.50
2022-12-22T18:23:52.755Z,97558.84
2022-12-22T18:26:26.438Z,97548.63
2022-12-22T18:28:54.581Z,97553.97
2022-12-22T18:31:22.547Z,97547.84
2022-12-22T18:33:50.024Z,97543.63
2022-12-22T18:36:20.332Z,97549.22
2022-12-22T18:38:48.038Z,97543.31
2022-12-22T18:41:21.129Z,97539.84
2022-12-22T18:43:48.020Z,97539.34
2022-12-22T18:46:14.880Z,97546.56
2022-12-22T18:48:41.816Z,97543.38
2022-12-22T18:51:21.645Z,97564.38
2022-12-22T18:53:49.971Z,97556.25
2022-12-22T18:56:17.213Z,97560.00
2022-12-22T18:58:44.243Z,97553.06
2022-12-22T19:01:25.405Z,97541.44
2022-12-22T19:03:55.452Z,97536.97
2022-12-22T19:06:23.255Z,97541.81
2022-12-22T19:08:50.519Z,97540.66
2022-12-22T19:11:20.719Z,97543.31
2022-12-22T19:13:49.835Z,97534.41
2022-12-22T19:16:19.305Z,97531.75
2022-12-22T19:18:46.142Z,97532.00
2022-12-22T19:21:18.328Z,97517.31
2022-12-22T19:23:45.644Z,97524.72
2022-12-22T19:26:24.198Z,97515.47
2022-12-22T19:29:01.690Z,97522.81
2022-12-22T19:31:34.257Z,97512.66
2022-12-22T19:34:04.890Z,97511.22
2022-12-22T19:36:33.424Z,97507.09
2022-12-22T19:39:04.703Z,97508.09
2022-12-22T19:41:35.019Z,97510.03
2022-12-22T19:44:01.891Z,97515.44
2022-12-22T19:46:31.309Z,97513.59
2022-12-22T19:48:58.157Z,97517.19
2022-12-22T19:51:24.969Z,97511.06
2022-12-22T19:53:51.625Z,97504.94
2022-12-22T19:56:27.429Z,97499.06
2022-12-22T19:58:56.314Z,97492.06
2022-12-22T20:01:23.352Z,97482.41
2022-12-22T20:03:50.244Z,97483.78
2022-12-22T20:06:17.853Z,97480.78
2022-12-22T20:08:44.967Z,97467.44
2022-12-22T20:11:17.910Z,97452.09
2022-12-22T20:13:45.771Z,97459.16
2022-12-22T20:16:16.955Z,97455.00
2022-12-22T20:18:46.350Z,97439.31
2022-12-22T20:21:18.000Z,97443.97
2022-12-22T20:23:45.911Z,97439.31
2022-12-22T20:26:16.408Z,97437.47
2022-12-22T20:28:43.391Z,97434.09
2022-12-22T20:31:13.806Z,97429.63
2022-12-22T20:33:40.785Z,97423.50
2022-12-22T20:36:23.154Z,97425.25
2022-12-22T20:38:54.539Z,97430.31
2022-12-22T20:41:21.937Z,97423.19
2022-12-22T20:43:49.053Z,97419.25
2022-12-22T20:46:18.809Z,97404.56
2022-12-22T20:48:51.830Z,97406.03
2022-12-22T20:51:20.573Z,97409.66
2022-12-22T20:53:48.328Z,97395.63
2022-12-22T20:56:17.938Z,97406.66
2022-12-22T20:58:44.583Z,97405.88
2022-12-22T21:01:11.108Z,97409.28
2022-12-22T21:03:37.794Z,97405.41
2022-12-22T21:06:21.903Z,97407.91
2022-12-22T21:08:48.475Z,97398.09
2022-12-22T21:11:15.196Z,97405.31
2022-12-22T21:13:41.764Z,97400.91
2022-12-22T21:16:13.114Z,97391.25
2022-12-22T21:18:39.822Z,97394.66
2022-12-22T21:21:06.490Z,97388.41
2022-12-22T21:23:33.091Z,97380.88
2022-12-22T21:25:59.818Z,97383.63
2022-12-22T21:28:34.095Z,97378.19
2022-12-22T21:31:01.545Z,97377.41
2022-12-22T21:33:28.226Z,97371.63
2022-12-22T21:35:57.052Z,97365.38
2022-12-22T21:38:26.844Z,97362.69
2022-12-22T21:40:53.501Z,97363.81
2022-12-22T21:43:20.270Z,97370.75
2022-12-22T21:45:49.293Z,97356.66
2022-12-22T21:48:21.552Z,97355.25
2022-12-22T21:50:50.430Z,97349.22
2022-12-22T21:53:22.281Z,97345.94
2022-12-22T21:55:49.990Z,97345.63
2022-12-22T21:58:16.585Z,97345.81
2022-12-22T22:00:47.832Z,97343.03
2022-12-22T22:03:16.223Z,97352.56
2022-12-22T22:05:43.641Z,97345.63
2022-12-22T22:08:12.301Z,97336.94
2022-12-22T22:10:41.892Z,97343.91
2022-12-22T22:13:12.636Z,97332.59
2022-12-22T22:15:39.288Z,97332.34
2022-12-22T22:18:07.505Z,97331.09
2022-12-22T22:20:35.021Z,97329.94
2022-12-22T22:23:02.315Z,97334.88
2022-12-22T22:25:28.994Z,97326.97
2022-12-22T22:27:59.701Z,97330.25
2022-12-22T22:30:26.648Z,97320.03
2022-12-22T22:32:54.731Z,97327.63
2022-12-22T22:35:22.716Z,97320.81
2022-12-22T22:37:52.557Z,97320.03
2022-12-22T22:40:21.658Z,97305.28
2022-12-22T22:42:48.625Z,97298.56
2022-12-22T22:45:23.110Z,97288.06
2022-12-22T22:47:51.507Z,97291.13
2022-12-22T22:50:19.336Z,97290.78
2022-12-22T22:52:47.191Z,97284.97
2022-12-22T22:55:14.782Z,97298.19
2022-12-22T22:57:42.787Z,97288.50
2022-12-22T23:00:11.946Z,97293.34
2022-12-22T23:02:38.804Z,97281.22
2022-12-22T23:05:05.961Z,97275.78
2022-12-22T23:07:32.532Z,97267.44
2022-12-22T23:09:59.104Z,97278.16
2022-12-22T23:12:25.845Z,97274.66
2022-12-22T23:14:52.372Z,97273.22
2022-12-22T23:17:19.073Z,97270.00
2022-12-22T23:19:45.756Z,97273.34
2022-12-22T23:22:12.447Z,97266.41
2022-12-22T23:24:39.065Z,97265.63
2022-12-22T23:27:05.766Z,97258.66
2022-12-22T23:29:32.354Z,97257.84
2022-12-22T23:31:59.052Z,97257.63
2022-12-22T23:34:25.734Z,97254.22
2022-12-22T23:36:52.312Z,97260.94
2022-12-22T23:39:19.114Z,97259.44
2022-12-22T23:41:45.754Z,97255.22
2022-12-22T23:44:12.348Z,97250.47
2022-12-22T23:46:40.261Z,97246.94
2022-12-22T23:49:07.420Z,97245.72
2022-12-22T23:51:34.178Z,97244.13
2022-12-22T23:54:01.729Z,97236.38
2022-12-22T23:56:30.058Z,97240.66
2022-12-22T23:58:57.039Z,97229.50
